CST,Max TemperatureF,Mean TemperatureF,Min TemperatureF,Max Dew PointF,MeanDew PointF,Min DewpointF,Max Humidity, Mean Humidity, Min Humidity, Max Sea Level PressureIn, Mean Sea Level PressureIn, Min Sea Level PressureIn, Max VisibilityMiles, Mean VisibilityMiles, Min VisibilityMiles, Max Wind SpeedMPH, Mean Wind SpeedMPH, Max Gust SpeedMPH,PrecipitationIn, CloudCover, Events, WindDirDegrees
2012-11-1,41,34,26,27,22,10,75,61,35,30.01,29.90,29.84,10,10,7,13,4,23,0.00,2,Rain,334
2012-11-2,35,24,14,21,16,10,93,70,41,30.20,30.12,30.01,10,10,10,9,2,17,0.00,1,,76
2012-11-3,35,30,26,27,23,21,86,75,56,30.25,30.23,30.20,10,10,2,7,1,,0.00,2,Snow,117
2012-11-4,33,27,21,25,21,18,93,70,56,30.25,30.24,30.21,10,10,10,8,1,,0.00,2,,84
2012-11-5,35,30,26,30,22,19,87,68,56,30.25,30.14,29.90,10,10,2,7,2,,0.00,1,,117
2012-11-6,37,34,32,34,31,28,93,87,81,29.89,29.77,29.69,10,6,2,14,2,18,0.15,4,Rain,187
2012-11-7,41,34,28,34,30,27,93,82,65,30.04,30.00,29.90,10,10,7,4,0,,0.00,2,,316
2012-11-8,48,38,28,34,30,27,93,72,46,30.05,29.95,29.85,10,10,7,15,3,21,0.00,3,Rain,235
2012-11-9,39,36,30,30,26,25,87,73,65,30.16,30.13,30.05,10,10,2,17,7,24,0.00,3,,53
2012-11-10,41,36,30,37,33,25,93,90,75,30.12,29.82,29.53,10,4,0,24,16,38,0.34,7,Fog-Rain-Snow-Thunderstorm,73
2012-11-11,46,35,24,45,31,14,93,80,64,29.74,29.59,29.45,10,8,0,14,6,18,0.05,5,Fog-Rain-Snow-Thunderstorm,269
2012-11-12,24,22,19,16,13,9,74,67,54,30.10,29.85,29.74,10,8,3,12,6,18,0.00,5,Snow,259
2012-11-13,32,26,19,19,15,12,80,65,44,30.27,30.23,30.11,10,10,10,10,5,,0.00,3,,241
2012-11-14,37,28,19,27,22,16,93,77,60,30.25,30.19,30.10,10,10,7,7,1,,0.00,4,,208
2012-11-15,44,30,17,32,14,0,93,60,16,30.43,30.19,30.05,10,9,4,12,2,21,0.00,1,,312
2012-11-16,35,22,10,21,15,5,93,73,48,30.48,30.41,30.32,10,10,10,7,1,,0.00,0,,154
2012-11-17,46,32,17,36,26,14,93,79,53,30.31,30.24,30.20,10,9,2,15,1,20,0.06,2,Rain,201
2012-11-18,48,36,24,36,30,21,93,76,46,30.23,30.13,30.07,10,7,2,7,1,,0.02,3,Rain,80
2012-11-19,44,34,24,39,30,21,93,87,70,30.09,30.03,29.99,10,6,1,4,0,,0.05,3,Rain,330
2012-11-20,44,34,23,30,28,21,93,82,57,30.12,30.07,30.02,10,6,0,6,1,,0.00,3,Fog,199
2012-11-21,44,35,26,36,29,25,100,87,70,30.02,29.87,29.66,10,3,0,5,0,,0.00,3,Fog,177
2012-11-22,55,40,26,43,29,23,93,80,44,29.65,29.57,29.50,10,5,0,13,3,21,0.17,2,Rain-Snow,296
2012-11-23,28,21,14,23,10,5,80,68,54,30.25,30.04,29.65,10,6,1,22,11,38,0.01,3,Snow,330
2012-11-24,21,10,-2,18,7,-9,93,77,63,30.24,30.04,29.75,10,8,1,8,1,,0.04,3,Snow,213
2012-11-25,24,17,8,16,11,0,86,72,53,30.07,29.84,29.72,10,9,4,14,4,23,0.00,5,Snow,299
2012-11-26,21,13,5,5,1,-2,79,62,42,30.26,30.20,30.07,10,9,2,10,4,16,0.00,2,Snow,308
2012-11-27,28,20,12,18,12,5,86,73,64,30.17,30.06,29.99,10,8,1,8,3,,0.00,3,Snow,258
2012-11-28,24,14,3,19,8,-2,86,69,54,30.23,30.13,30.03,10,10,7,10,5,,0.00,1,Snow,265
2012-11-29,24,20,17,19,13,7,86,72,63,30.24,30.18,30.06,10,10,5,14,4,21,0.00,3,Snow,50
2012-11-30,30,27,24,27,20,18,86,74,69,30.24,30.18,30.06,10,9,4,15,10,22,0.00,4,Snow,105